Time;durP1;ratioP1;P1;durP2;ratioP2;P2;SDS_P1;SDS_P2;PMS_P1;PMS_P2;Temp;Humidity;BMP_temperature;BMP_pressure;BME280_temperature;BME280_humidity;BME280_pressure;Samples;Min_cycle;Max_cycle;Signal;HPM_P1;HPM_P2
2022/10/29 00:00:51;;;;;;;2.60;2.40;;;22.00;99.90;;;;;;5041580;28;20478;-45
2022/10/29 00:03:19;;;;;;;2.43;2.23;;;22.00;99.90;;;;;;5041409;28;20457;-44
2022/10/29 00:05:55;;;;;;;2.40;2.20;;;21.90;99.90;;;;;;5043839;28;20461;-47
2022/10/29 00:08:22;;;;;;;3.60;3.00;;;21.90;99.90;;;;;;5042685;28;20450;-47
2022/10/29 00:10:49;;;;;;;3.40;2.43;;;21.90;99.90;;;;;;5046551;28;20469;-48
2022/10/29 00:13:17;;;;;;;2.50;2.30;;;21.90;99.90;;;;;;5043276;28;20798;-47
2022/10/29 00:15:43;;;;;;;2.83;2.13;;;21.90;99.90;;;;;;5033601;28;22144;-48
2022/10/29 00:18:10;;;;;;;2.67;2.10;;;21.80;99.90;;;;;;5031674;28;20482;-45
2022/10/29 00:20:37;;;;;;;2.80;2.27;;;21.80;99.90;;;;;;5041839;28;20482;-45
2022/10/29 00:23:03;;;;;;;2.63;2.33;;;21.80;99.90;;;;;;5035690;28;20463;-47
2022/10/29 00:25:30;;;;;;;2.77;2.50;;;21.80;99.90;;;;;;5046288;28;20454;-50
2022/10/29 00:27:57;;;;;;;3.40;2.30;;;21.80;99.90;;;;;;5041562;28;20457;-44
2022/10/29 00:30:25;;;;;;;3.00;2.23;;;21.80;99.90;;;;;;5038152;28;20470;-47
2022/10/29 00:32:51;;;;;;;3.20;2.70;;;21.70;99.90;;;;;;5039971;28;20465;-47
2022/10/29 00:35:18;;;;;;;2.63;2.43;;;21.70;99.90;;;;;;5038328;28;20458;-50
2022/10/29 00:37:44;;;;;;;2.43;2.23;;;21.70;99.90;;;;;;5038255;28;20461;-44
2022/10/29 00:40:12;;;;;;;4.13;2.57;;;21.70;99.90;;;;;;5037659;28;20480;-44
2022/10/29 00:42:39;;;;;;;2.50;2.30;;;21.70;99.90;;;;;;5044564;28;20458;-44
2022/10/29 00:45:06;;;;;;;2.07;1.87;;;21.70;99.90;;;;;;5032328;28;20949;-44
2022/10/29 00:47:37;;;;;;;2.70;2.50;;;21.70;99.90;;;;;;5043424;28;20454;-47
2022/10/29 00:50:08;;;;;;;2.83;2.13;;;21.60;99.90;;;;;;5045742;28;20466;-49
2022/10/29 00:52:40;;;;;;;2.20;2.10;;;21.60;99.90;;;;;;5043716;28;20465;-47
2022/10/29 00:55:10;;;;;;;2.30;2.10;;;21.60;99.90;;;;;;5037640;28;20484;-46
2022/10/29 00:57:39;;;;;;;2.43;1.90;;;21.60;99.90;;;;;;5039823;28;20462;-49
2022/10/29 01:00:07;;;;;;;2.50;2.20;;;21.60;99.90;;;;;;5044824;28;20477;-45
2022/10/29 01:02:37;;;;;;;3.10;2.30;;;21.60;99.90;;;;;;5043526;28;20469;-45
2022/10/29 01:05:06;;;;;;;2.37;2.17;;;21.60;99.90;;;;;;5040565;28;20819;-47
2022/10/29 01:07:33;;;;;;;3.67;2.50;;;21.60;99.90;;;;;;5047746;28;20461;-47
2022/10/29 01:10:00;;;;;;;2.37;2.17;;;21.50;99.90;;;;;;5040408;28;20457;-47
2022/10/29 01:12:41;;;;;;;3.00;2.80;;;21.50;99.90;;;;;;5051335;28;20454;-48
2022/10/29 01:15:17;;;;;;;2.10;2.00;;;21.60;99.90;;;;;;5037113;28;20457;-50
2022/10/29 01:17:58;;;;;;;2.20;2.00;;;21.50;99.90;;;;;;5039307;28;20480;-46
2022/10/29 01:21:15;;;;;;;2.40;2.20;;;21.50;99.90;;;;;;5047540;28;20556;-46
2022/10/29 01:24:26;;;;;;;2.67;2.27;;;21.50;99.90;;;;;;5043291;28;20458;-49
2022/10/29 01:27:29;;;;;;;2.33;2.13;;;21.50;99.90;;;;;;5048370;28;20468;-48
2022/10/29 01:30:05;;;;;;;2.77;2.50;;;21.50;99.90;;;;;;5025790;28;20559;-48
2022/10/29 01:32:42;;;;;;;2.33;1.97;;;21.40;99.90;;;;;;5042534;28;20462;-48
2022/10/29 01:35:14;;;;;;;2.53;2.17;;;21.40;99.90;;;;;;5041529;28;20480;-47
2022/10/29 01:37:51;;;;;;;1.90;1.80;;;21.40;99.90;;;;;;5041771;28;20466;-47
2022/10/29 01:40:25;;;;;;;3.47;2.00;;;21.40;99.90;;;;;;5045243;28;20481;-49
2022/10/29 01:42:55;;;;;;;2.43;2.23;;;21.40;99.90;;;;;;5040533;28;20450;-44
2022/10/29 01:45:26;;;;;;;1.70;1.60;;;21.40;99.90;;;;;;5047738;28;20437;-47
2022/10/29 01:47:58;;;;;;;2.90;2.60;;;21.40;99.90;;;;;;5043648;28;20542;-47
2022/10/29 01:50:25;;;;;;;2.40;2.20;;;21.40;99.90;;;;;;5040585;28;20470;-47
2022/10/29 01:52:54;;;;;;;2.17;1.97;;;21.40;99.90;;;;;;5046049;28;20472;-43
2022/10/29 01:55:28;;;;;;;2.50;2.30;;;21.40;99.90;;;;;;5037632;28;20505;-49
2022/10/29 01:57:54;;;;;;;2.80;2.27;;;21.40;99.90;;;;;;5045232;28;20450;-46
2022/10/29 02:00:22;;;;;;;3.40;2.90;;;21.40;99.90;;;;;;5053330;28;20810;-47
2022/10/29 02:03:05;;;;;;;2.33;2.07;;;21.40;99.90;;;;;;5043549;28;20481;-51
2022/10/29 02:05:35;;;;;;;3.10;2.17;;;21.30;99.90;;;;;;5044583;28;20465;-46
2022/10/29 02:08:15;;;;;;;2.60;1.93;;;21.30;99.90;;;;;;5046796;28;20466;-48
2022/10/29 02:10:48;;;;;;;2.03;1.83;;;21.30;99.90;;;;;;5040261;28;20502;-48
2022/10/29 02:13:17;;;;;;;3.40;2.50;;;21.30;99.90;;;;;;5046023;28;20515;-45
2022/10/29 02:15:47;;;;;;;2.45;2.22;;;21.30;99.90;;;;;;5037918;28;20454;-48
2022/10/29 02:18:16;;;;;;;2.00;1.90;;;21.30;99.90;;;;;;5047852;28;20653;-49
2022/10/29 02:20:44;;;;;;;3.10;2.73;;;21.30;99.90;;;;;;5037594;28;20477;-46
2022/10/29 02:23:11;;;;;;;1.90;1.80;;;21.30;99.90;;;;;;5042108;28;20458;-45
2022/10/29 02:25:37;;;;;;;2.30;2.10;;;21.30;99.90;;;;;;5035857;28;20494;-45
2022/10/29 02:28:04;;;;;;;2.80;2.60;;;21.30;99.90;;;;;;5042880;28;20867;-45
2022/10/29 02:30:31;;;;;;;2.10;1.90;;;21.20;99.90;;;;;;5041216;28;20465;-49
2022/10/29 02:32:58;;;;;;;2.17;1.97;;;21.20;99.90;;;;;;5039617;28;20470;-49
2022/10/29 02:35:26;;;;;;;2.40;2.20;;;21.20;99.90;;;;;;5035970;28;20949;-44
2022/10/29 02:37:53;;;;;;;2.27;1.60;;;21.20;99.90;;;;;;5045358;28;20462;-48
2022/10/29 02:40:19;;;;;;;2.13;1.93;;;21.20;99.90;;;;;;5045250;28;20473;-43
2022/10/29 02:42:46;;;;;;;1.77;1.67;;;21.20;99.90;;;;;;5039486;28;20493;-48
2022/10/29 02:45:13;;;;;;;4.40;2.63;;;21.20;99.90;;;;;;5036964;28;20968;-44
2022/10/29 02:47:40;;;;;;;3.20;2.60;;;21.20;99.90;;;;;;5038751;28;20457;-47
2022/10/29 02:50:08;;;;;;;2.43;2.23;;;21.20;99.90;;;;;;5040918;28;20982;-46
2022/10/29 02:52:36;;;;;;;2.37;2.17;;;21.20;99.90;;;;;;5033853;28;20461;-47
2022/10/29 02:55:02;;;;;;;2.40;2.20;;;21.20;99.90;;;;;;5041988;28;20828;-50
2022/10/29 02:57:29;;;;;;;2.73;2.23;;;21.10;99.90;;;;;;5038602;28;20465;-44
2022/10/29 02:59:56;;;;;;;4.77;1.90;;;21.20;99.90;;;;;;5043824;28;20461;-48
2022/10/29 03:02:22;;;;;;;2.10;1.90;;;21.10;99.90;;;;;;5037849;28;20463;-47
2022/10/29 03:04:49;;;;;;;2.70;1.80;;;21.10;99.90;;;;;;5038695;28;20463;-45
2022/10/29 03:07:16;;;;;;;2.10;1.90;;;21.10;99.90;;;;;;5038546;28;20465;-49
2022/10/29 03:09:44;;;;;;;1.83;1.67;;;21.10;99.90;;;;;;5035160;28;20457;-48
2022/10/29 03:12:10;;;;;;;2.15;1.95;;;21.10;99.90;;;;;;5040167;28;20944;-42
2022/10/29 03:14:37;;;;;;;2.80;2.50;;;21.10;99.90;;;;;;5034587;28;20207;-47
2022/10/29 03:17:04;;;;;;;2.20;2.10;;;21.10;99.90;;;;;;5029900;28;20478;-47
2022/10/29 03:19:30;;;;;;;2.53;2.33;;;21.10;99.90;;;;;;5044158;28;20461;-48
2022/10/29 03:21:57;;;;;;;2.87;2.40;;;21.10;99.90;;;;;;5042407;28;20659;-47
2022/10/29 03:24:24;;;;;;;2.70;2.50;;;21.10;99.90;;;;;;5040669;28;20457;-44
2022/10/29 03:26:52;;;;;;;1.93;1.83;;;21.10;99.90;;;;;;5041754;28;20450;-43
2022/10/29 03:29:18;;;;;;;2.40;1.90;;;21.10;99.90;;;;;;5048476;28;20880;-48
2022/10/29 03:31:45;;;;;;;2.40;2.20;;;21.10;99.90;;;;;;5042188;28;20473;-50
2022/10/29 03:34:12;;;;;;;2.20;2.00;;;21.10;99.90;;;;;;5039731;28;20961;-45
2022/10/29 03:36:38;;;;;;;2.47;2.27;;;21.10;99.90;;;;;;5037064;28;20458;-47
2022/10/29 03:39:05;;;;;;;2.17;1.97;;;21.10;99.90;;;;;;5045162;28;20490;-48
2022/10/29 03:41:32;;;;;;;2.53;2.33;;;21.20;99.90;;;;;;5047256;28;20485;-45
2022/10/29 03:44:00;;;;;;;2.43;2.23;;;21.50;99.90;;;;;;5038519;28;20809;-49
2022/10/29 03:46:27;;;;;;;2.03;1.90;;;21.90;99.90;;;;;;5039309;28;20461;-47
2022/10/29 03:48:53;;;;;;;1.40;1.30;;;22.30;99.90;;;;;;5042728;28;20981;-48
2022/10/29 03:51:20;;;;;;;3.17;2.27;;;22.50;99.90;;;;;;5043220;28;20493;-48
2022/10/29 03:53:47;;;;;;;2.20;2.00;;;22.70;99.90;;;;;;5035909;28;20842;-47
2022/10/29 03:56:13;;;;;;;2.07;1.83;;;22.90;99.90;;;;;;5042464;28;20964;-42
2022/10/29 03:58:40;;;;;;;1.97;1.87;;;23.00;99.90;;;;;;5035640;28;20825;-48
2022/10/29 04:01:09;;;;;;;2.50;2.10;;;23.00;99.90;;;;;;5030814;28;20825;-47
2022/10/29 04:03:41;;;;;;;1.80;1.57;;;23.00;99.90;;;;;;5041551;28;20461;-45
2022/10/29 04:06:10;;;;;;;1.90;1.60;;;22.90;99.90;;;;;;5045502;28;20470;-49
2022/10/29 04:08:37;;;;;;;2.70;2.50;;;22.80;99.90;;;;;;5042446;28;20460;-47
2022/10/29 04:11:04;;;;;;;1.80;1.70;;;22.80;99.90;;;;;;5048144;28;20944;-49
2022/10/29 04:13:30;;;;;;;2.20;2.00;;;22.80;99.90;;;;;;5031162;28;20462;-48
2022/10/29 04:15:57;;;;;;;1.97;1.77;;;22.80;99.90;;;;;;5036689;28;20472;-49
2022/10/29 04:18:25;;;;;;;3.00;2.47;;;22.70;99.90;;;;;;5034320;28;20454;-49
2022/10/29 04:20:53;;;;;;;2.90;1.90;;;22.70;99.90;;;;;;5043707;28;20474;-49
2022/10/29 04:23:20;;;;;;;2.47;2.27;;;22.70;99.90;;;;;;5037117;28;20862;-47
2022/10/29 04:25:55;;;;;;;2.10;2.00;;;22.70;99.90;;;;;;5038678;28;20953;-45
2022/10/29 04:28:21;;;;;;;2.03;1.83;;;22.60;99.90;;;;;;5037202;28;20490;-46
2022/10/29 04:30:48;;;;;;;2.10;1.80;;;22.60;99.90;;;;;;5039786;28;20458;-47
2022/10/29 04:33:15;;;;;;;1.80;1.70;;;22.50;99.90;;;;;;5040858;28;20454;-45
2022/10/29 04:35:43;;;;;;;1.87;1.77;;;22.50;99.90;;;;;;5044732;28;20632;-47
2022/10/29 04:38:11;;;;;;;2.50;2.30;;;22.50;99.90;;;;;;5043415;28;20453;-49
2022/10/29 04:40:38;;;;;;;2.20;2.00;;;22.50;99.90;;;;;;5044337;28;20821;-48
2022/10/29 04:43:04;;;;;;;3.20;1.83;;;22.40;99.90;;;;;;5046441;28;20462;-50
2022/10/29 04:45:31;;;;;;;1.90;1.80;;;22.40;99.90;;;;;;5040963;28;20468;-47
2022/10/29 04:48:02;;;;;;;1.60;1.50;;;22.30;99.90;;;;;;5043705;28;20978;-47
2022/10/29 04:50:29;;;;;;;1.60;1.50;;;22.30;99.90;;;;;;5042499;28;20458;-49
2022/10/29 04:52:59;;;;;;;2.07;1.80;;;22.30;99.90;;;;;;5044648;28;20453;-46
2022/10/29 04:55:27;;;;;;;1.70;1.40;;;22.20;99.90;;;;;;5046452;28;20480;-47
2022/10/29 04:57:54;;;;;;;2.00;1.80;;;22.20;99.90;;;;;;5044945;28;20501;-47
2022/10/29 05:00:21;;;;;;;2.10;1.90;;;22.20;99.90;;;;;;5049397;28;20476;-50
2022/10/29 05:02:49;;;;;;;2.53;1.90;;;22.10;99.90;;;;;;5044695;28;20481;-47
2022/10/29 05:05:16;;;;;;;1.90;1.80;;;22.10;99.90;;;;;;5042770;28;20884;-49
2022/10/29 05:07:43;;;;;;;2.10;1.67;;;22.10;99.90;;;;;;5046549;28;20449;-47
2022/10/29 05:10:11;;;;;;;2.10;1.80;;;22.10;99.90;;;;;;5047400;28;20459;-53
2022/10/29 05:12:38;;;;;;;2.10;1.90;;;22.10;99.90;;;;;;5035511;28;20465;-51
2022/10/29 05:15:06;;;;;;;1.70;1.60;;;22.10;99.90;;;;;;5042243;28;20464;-50
2022/10/29 05:17:37;;;;;;;2.63;1.97;;;22.10;99.90;;;;;;5042710;28;21174;-46
2022/10/29 05:20:04;;;;;;;2.10;1.67;;;22.10;99.90;;;;;;5047060;28;20551;-47
2022/10/29 05:22:31;;;;;;;2.03;1.83;;;22.10;99.90;;;;;;5045371;28;20485;-51
2022/10/29 05:24:58;;;;;;;1.90;1.70;;;22.10;99.90;;;;;;5041093;28;20466;-46
2022/10/29 05:27:26;;;;;;;2.40;2.00;;;22.00;99.90;;;;;;5041783;28;20477;-48
2022/10/29 05:29:52;;;;;;;1.53;1.40;;;22.00;99.90;;;;;;5039624;28;20458;-48
2022/10/29 05:32:19;;;;;;;1.87;1.77;;;22.00;99.90;;;;;;5036127;28;20892;-48
2022/10/29 05:34:46;;;;;;;1.60;1.33;;;22.10;99.90;;;;;;5044980;28;20453;-47
2022/10/29 05:37:12;;;;;;;2.03;1.90;;;22.00;99.90;;;;;;5036512;28;20459;-48
2022/10/29 05:39:39;;;;;;;1.73;1.63;;;22.10;99.90;;;;;;5050402;28;20469;-47
2022/10/29 05:42:06;;;;;;;2.27;2.07;;;22.10;99.90;;;;;;5047300;28;20477;-46
2022/10/29 05:44:34;;;;;;;1.70;1.60;;;22.10;99.90;;;;;;5034085;28;20457;-48
2022/10/29 05:47:01;;;;;;;1.70;1.60;;;22.20;99.90;;;;;;5038951;28;20473;-49
2022/10/29 05:49:27;;;;;;;2.00;1.90;;;22.20;99.90;;;;;;5040994;28;20458;-48
2022/10/29 05:51:54;;;;;;;1.87;1.67;;;22.20;99.90;;;;;;5037757;28;20458;-48
2022/10/29 05:54:21;;;;;;;2.87;2.17;;;22.20;99.90;;;;;;5039530;28;20503;-39
2022/10/29 05:56:48;;;;;;;1.73;1.63;;;22.20;99.90;;;;;;5048121;28;20472;-45
2022/10/29 05:59:15;;;;;;;1.93;1.77;;;22.20;99.90;;;;;;5044400;28;20462;-47
2022/10/29 06:01:43;;;;;;;1.63;1.53;;;22.20;99.90;;;;;;5038629;28;20482;-47
2022/10/29 06:04:10;;;;;;;2.10;1.90;;;22.20;99.90;;;;;;5045748;28;20812;-47
2022/10/29 06:06:36;;;;;;;2.33;1.43;;;22.10;99.90;;;;;;5038154;28;20470;-48
2022/10/29 06:09:03;;;;;;;2.13;1.70;;;22.10;99.90;;;;;;5050374;28;20843;-48
2022/10/29 06:11:30;;;;;;;1.60;1.50;;;22.10;99.90;;;;;;5048860;28;20469;-47
2022/10/29 06:13:56;;;;;;;2.77;2.10;;;22.00;99.90;;;;;;5034556;28;20834;-48
2022/10/29 06:16:23;;;;;;;2.00;1.80;;;22.10;99.90;;;;;;5040574;28;20853;-48
2022/10/29 06:18:51;;;;;;;2.23;1.93;;;22.10;99.90;;;;;;5036704;28;20795;-45
2022/10/29 06:21:18;;;;;;;2.10;1.90;;;22.10;99.90;;;;;;5038552;28;20482;-48
2022/10/29 06:23:45;;;;;;;2.17;1.97;;;22.10;99.90;;;;;;5052606;28;20452;-49
2022/10/29 06:26:11;;;;;;;1.90;1.80;;;22.10;99.90;;;;;;5047411;28;20832;-44
2022/10/29 06:28:38;;;;;;;1.53;1.40;;;22.20;99.90;;;;;;5040727;28;20462;-46
2022/10/29 06:31:05;;;;;;;1.90;1.50;;;22.20;99.90;;;;;;5033108;28;20504;-49
2022/10/29 06:33:31;;;;;;;3.80;2.10;;;22.20;99.90;;;;;;5044526;28;20466;-50
2022/10/29 06:36:00;;;;;;;2.20;1.97;;;22.20;99.90;;;;;;5045392;28;20850;-49
2022/10/29 06:38:27;;;;;;;1.90;1.80;;;22.20;99.90;;;;;;5041862;28;20960;-46
2022/10/29 06:40:54;;;;;;;1.63;1.53;;;22.30;99.90;;;;;;5042530;28;20465;-51
2022/10/29 06:43:20;;;;;;;2.00;1.83;;;22.30;99.90;;;;;;5040252;28;20482;-43
2022/10/29 06:45:48;;;;;;;2.40;2.20;;;22.30;99.90;;;;;;5037847;28;20458;-42
2022/10/29 06:48:15;;;;;;;2.43;2.20;;;22.30;99.90;;;;;;5035653;28;20979;-43
2022/10/29 06:50:42;;;;;;;2.37;2.00;;;22.30;99.90;;;;;;5037803;28;20461;-43
2022/10/29 06:53:13;;;;;;;2.40;1.97;;;22.30;99.90;;;;;;5039971;28;20469;-42
2022/10/29 06:55:40;;;;;;;2.33;2.13;;;22.40;99.90;;;;;;5044421;28;20465;-43
2022/10/29 06:58:11;;;;;;;1.90;1.80;;;22.40;99.90;;;;;;5049076;28;20449;-42
2022/10/29 07:00:39;;;;;;;4.20;1.50;;;22.40;99.90;;;;;;5039924;28;20469;-42
2022/10/29 07:03:06;;;;;;;2.63;2.17;;;22.40;99.90;;;;;;5045332;28;20485;-42
2022/10/29 07:05:34;;;;;;;2.10;1.90;;;22.40;99.90;;;;;;5037905;28;20466;-42
2022/10/29 07:08:01;;;;;;;3.00;2.10;;;22.40;99.90;;;;;;5045964;28;20442;-42
2022/10/29 07:10:31;;;;;;;5.00;2.87;;;22.40;99.90;;;;;;5038268;28;20476;-41
2022/10/29 07:12:58;;;;;;;3.77;3.20;;;22.40;99.90;;;;;;5045164;28;20507;-40
2022/10/29 07:15:25;;;;;;;5.70;3.87;;;22.30;99.90;;;;;;5038343;28;20972;-42
2022/10/29 07:17:56;;;;;;;6.53;3.80;;;22.30;99.90;;;;;;5037180;28;20493;-42
2022/10/29 07:20:23;;;;;;;12.63;4.40;;;22.40;99.90;;;;;;5047285;28;20445;-41
2022/10/29 07:22:50;;;;;;;6.43;3.67;;;22.40;99.90;;;;;;5038474;28;20469;-42
2022/10/29 07:25:16;;;;;;;3.30;2.80;;;22.40;99.90;;;;;;5040147;28;20461;-42
2022/10/29 07:27:45;;;;;;;8.13;3.97;;;22.40;99.90;;;;;;5035954;28;20543;-41
2022/10/29 07:30:12;;;;;;;6.00;4.00;;;22.40;99.90;;;;;;5040028;28;20449;-40
2022/10/29 07:32:38;;;;;;;3.87;3.07;;;22.40;99.90;;;;;;5038520;28;20473;-42
2022/10/29 07:35:06;;;;;;;5.00;3.80;;;22.40;99.90;;;;;;5041771;28;20465;-40
2022/10/29 07:37:32;;;;;;;6.10;3.27;;;22.40;99.90;;;;;;5045890;28;20515;-42
2022/10/29 07:39:59;;;;;;;4.30;3.00;;;22.40;99.90;;;;;;5049191;28;20462;-42
2022/10/29 07:42:26;;;;;;;4.57;3.13;;;22.40;99.90;;;;;;5049284;28;20488;-42
2022/10/29 07:44:54;;;;;;;8.47;3.60;;;22.40;99.90;;;;;;5047582;28;20460;-42
2022/10/29 07:47:21;;;;;;;4.80;3.60;;;22.30;99.90;;;;;;5039023;28;20462;-41
2022/10/29 07:49:47;;;;;;;5.93;3.90;;;22.40;99.90;;;;;;5038312;28;20468;-42
2022/10/29 07:52:14;;;;;;;8.93;4.43;;;22.30;99.90;;;;;;5046934;28;20457;-42
2022/10/29 07:54:41;;;;;;;5.00;4.07;;;22.20;99.90;;;;;;5040480;28;20952;-41
2022/10/29 07:57:07;;;;;;;5.87;3.70;;;22.20;99.90;;;;;;5047983;28;20484;-43
2022/10/29 07:59:34;;;;;;;20.13;10.80;;;22.20;99.90;;;;;;5036339;28;20457;-32
2022/10/29 08:02:02;;;;;;;21.00;10.80;;;19.70;99.90;;;;;;5036382;28;20864;-32
2022/10/29 08:04:29;;;;;;;19.42;9.77;;;18.70;99.90;;;;;;5053311;28;20456;-33
2022/10/29 08:06:55;;;;;;;17.45;6.60;;;18.60;99.90;;;;;;5052117;28;20194;-48
2022/10/29 08:09:22;;;;;;;7.68;5.88;;;19.60;99.90;;;;;;5040269;28;20199;-47
2022/10/29 08:11:49;;;;;;;17.53;6.67;;;20.70;99.90;;;;;;5049468;28;20196;-49
2022/10/29 08:14:16;;;;;;;11.67;4.97;;;21.40;99.90;;;;;;5050024;28;20491;-46
2022/10/29 08:16:42;;;;;;;9.27;6.13;;;21.80;99.90;;;;;;5046342;28;20550;-44
2022/10/29 08:19:11;;;;;;;10.27;4.80;;;22.20;99.90;;;;;;5046114;28;20465;-46
2022/10/29 08:21:37;;;;;;;6.30;4.83;;;22.50;99.90;;;;;;5042600;28;20456;-43
2022/10/29 08:24:04;;;;;;;11.50;4.70;;;22.80;99.90;;;;;;5042040;28;20524;-45
2022/10/29 08:26:32;;;;;;;5.83;4.77;;;23.00;99.90;;;;;;5040124;28;20468;-43
2022/10/29 08:28:58;;;;;;;7.27;4.27;;;23.10;99.90;;;;;;5050911;28;20457;-43
2022/10/29 08:31:25;;;;;;;6.03;4.40;;;23.20;99.90;;;;;;5050902;28;20507;-45
2022/10/29 08:33:52;;;;;;;11.07;4.40;;;23.20;99.90;;;;;;5042580;28;20493;-45
2022/10/29 08:36:20;;;;;;;7.67;4.57;;;23.30;99.90;;;;;;5041125;28;20844;-44
2022/10/29 08:38:46;;;;;;;4.73;4.23;;;23.30;99.90;;;;;;5042489;28;20468;-45
2022/10/29 08:41:36;;;;;;;4.87;4.13;;;23.20;99.90;;;;;;5042846;28;20479;-46
2022/10/29 08:44:26;;;;;;;5.63;4.67;;;23.20;99.90;;;;;;5045853;28;20488;-45
2022/10/29 08:46:57;;;;;;;3.93;3.60;;;23.30;99.90;;;;;;5049830;28;20468;-44
2022/10/29 08:49:28;;;;;;;5.97;4.43;;;23.30;99.90;;;;;;5037728;28;21229;-46
2022/10/29 08:52:01;;;;;;;5.80;3.80;;;23.30;99.90;;;;;;5049559;28;20952;-47
2022/10/29 08:54:34;;;;;;;5.30;3.97;;;23.30;99.90;;;;;;5041088;28;20455;-45
2022/10/29 08:57:06;;;;;;;6.90;4.33;;;23.30;99.90;;;;;;5043406;28;20469;-45
2022/10/29 08:59:40;;;;;;;8.37;3.90;;;23.20;99.90;;;;;;5049940;28;20450;-44
2022/10/29 09:02:15;;;;;;;4.50;3.40;;;23.20;99.90;;;;;;5056198;28;20472;-45
2022/10/29 09:04:41;;;;;;;4.90;4.40;;;23.20;99.90;;;;;;5041892;28;20536;-44
2022/10/29 09:07:25;;;;;;;5.93;3.73;;;23.20;99.90;;;;;;5051314;28;20445;-46
2022/10/29 09:09:59;;;;;;;5.30;3.93;;;23.10;99.90;;;;;;5046688;28;20468;-44
2022/10/29 09:12:40;;;;;;;4.07;3.30;;;23.10;99.90;;;;;;5050617;28;20457;-44
2022/10/29 09:15:21;;;;;;;3.70;3.40;;;23.10;99.90;;;;;;5044618;28;20818;-44
2022/10/29 09:17:58;;;;;;;3.57;2.73;;;23.10;99.90;;;;;;5042057;28;21010;-47
2022/10/29 09:20:31;;;;;;;6.83;4.37;;;23.00;99.90;;;;;;5047499;28;21016;-46
2022/10/29 09:23:08;;;;;;;4.97;4.30;;;23.00;99.90;;;;;;5037051;28;20486;-45
2022/10/29 09:25:41;;;;;;;5.20;3.47;;;23.10;99.90;;;;;;5040674;28;20519;-47
2022/10/29 09:28:24;;;;;;;4.60;4.07;;;23.10;99.90;;;;;;5042244;28;20500;-46
2022/10/29 09:31:02;;;;;;;3.70;3.37;;;23.00;99.90;;;;;;5037724;28;20462;-46
2022/10/29 09:33:30;;;;;;;6.00;3.77;;;23.00;99.90;;;;;;5040702;28;20461;-46
2022/10/29 09:35:59;;;;;;;5.53;3.40;;;23.00;99.90;;;;;;5039769;28;20959;-44
2022/10/29 09:38:32;;;;;;;4.80;2.90;;;23.00;99.90;;;;;;5034500;28;20451;-46
2022/10/29 09:41:01;;;;;;;5.77;3.50;;;23.10;99.90;;;;;;5037982;28;20480;-44
2022/10/29 09:43:38;;;;;;;3.70;3.37;;;23.20;99.90;;;;;;5036684;28;20478;-43
2022/10/29 09:46:11;;;;;;;4.37;3.97;;;23.20;99.90;;;;;;5036937;28;21024;-47
2022/10/29 09:48:45;;;;;;;5.30;4.00;;;23.20;99.90;;;;;;5032427;28;20469;-45
2022/10/29 09:51:25;;;;;;;8.90;3.57;;;23.20;99.90;;;;;;5041458;28;20453;-43
2022/10/29 09:53:54;;;;;;;4.83;3.87;;;23.20;99.90;;;;;;5040589;28;20468;-42
2022/10/29 09:56:21;;;;;;;4.73;3.33;;;23.20;99.90;;;;;;5039342;28;20953;-46
2022/10/29 09:58:55;;;;;;;7.53;4.17;;;23.30;99.90;;;;;;5040986;28;20450;-42
2022/10/29 10:01:21;;;;;;;5.53;3.77;;;23.40;99.90;;;;;;5037116;28;20850;-45
2022/10/29 10:03:54;;;;;;;8.00;4.00;;;23.30;99.90;;;;;;5039430;28;20474;-45
2022/10/29 10:06:21;;;;;;;7.73;3.53;;;23.30;99.90;;;;;;5034159;28;20443;-45
2022/10/29 10:09:01;;;;;;;5.70;3.10;;;23.30;99.90;;;;;;5043607;28;20879;-44
2022/10/29 10:11:33;;;;;;;5.27;4.77;;;23.40;99.90;;;;;;5051079;28;20631;-41
2022/10/29 10:14:01;;;;;;;7.57;3.50;;;23.40;99.90;;;;;;5052777;28;20457;-45
2022/10/29 10:16:32;;;;;;;3.30;2.60;;;23.40;99.90;;;;;;5048798;28;20459;-42
2022/10/29 10:18:58;;;;;;;5.73;3.80;;;23.40;99.90;;;;;;5035648;28;20458;-45
2022/10/29 10:21:27;;;;;;;4.63;3.00;;;23.40;99.90;;;;;;5050725;28;20441;-45
2022/10/29 10:23:56;;;;;;;4.23;3.70;;;23.40;99.90;;;;;;5051964;28;20497;-45
2022/10/29 10:26:34;;;;;;;4.10;3.23;;;23.50;99.90;;;;;;5049857;28;20551;-43
2022/10/29 10:29:11;;;;;;;3.30;3.00;;;23.50;99.90;;;;;;5048896;28;20793;-47
2022/10/29 10:31:38;;;;;;;4.63;2.97;;;23.50;99.90;;;;;;5035400;28;20966;-43
2022/10/29 10:34:13;;;;;;;4.00;3.57;;;23.50;99.90;;;;;;5037246;28;20461;-42
2022/10/29 10:36:42;;;;;;;5.83;2.70;;;23.50;99.90;;;;;;5036737;28;20466;-43
2022/10/29 10:39:24;;;;;;;7.23;3.93;;;23.50;99.90;;;;;;5039373;28;20457;-42
2022/10/29 10:41:53;;;;;;;3.27;3.07;;;23.60;99.90;;;;;;5041112;28;20472;-42
2022/10/29 10:44:21;;;;;;;5.93;3.63;;;23.60;99.90;;;;;;5038373;28;20503;-42
2022/10/29 10:46:51;;;;;;;3.53;3.23;;;23.60;99.90;;;;;;5037496;28;20458;-42
2022/10/29 10:49:22;;;;;;;3.27;2.97;;;23.60;99.90;;;;;;5041945;28;20545;-41
2022/10/29 10:51:50;;;;;;;3.60;3.17;;;23.60;99.90;;;;;;5036076;28;20511;-42
2022/10/29 10:54:29;;;;;;;4.40;3.17;;;23.60;99.90;;;;;;5041353;28;20451;-41
2022/10/29 10:56:59;;;;;;;4.60;3.73;;;23.60;99.90;;;;;;5044980;28;20437;-41
2022/10/29 10:59:38;;;;;;;3.50;3.07;;;23.60;99.90;;;;;;5040881;28;20752;-41
2022/10/29 11:02:08;;;;;;;3.47;3.00;;;23.60;99.90;;;;;;5041094;28;20924;-41
2022/10/29 11:04:39;;;;;;;3.40;3.10;;;23.60;99.90;;;;;;5034641;28;20491;-41
2022/10/29 11:07:09;;;;;;;5.13;3.90;;;23.60;99.90;;;;;;5042302;28;20507;-42
2022/10/29 11:09:40;;;;;;;2.90;2.60;;;23.60;99.90;;;;;;5045464;28;20457;-42
2022/10/29 11:12:12;;;;;;;3.77;3.03;;;23.70;99.90;;;;;;5048255;28;20470;-43
2022/10/29 11:14:46;;;;;;;3.70;3.23;;;23.70;99.90;;;;;;5037568;28;20466;-43
2022/10/29 11:17:25;;;;;;;5.73;2.73;;;23.70;99.90;;;;;;5033137;28;20524;-44
2022/10/29 11:19:56;;;;;;;4.10;2.70;;;23.80;99.90;;;;;;5045308;28;20500;-43
2022/10/29 11:22:29;;;;;;;3.83;3.40;;;23.70;99.90;;;;;;5041915;28;20511;-44
2022/10/29 11:25:04;;;;;;;4.80;3.50;;;23.80;99.90;;;;;;5041228;28;20843;-44
2022/10/29 11:27:40;;;;;;;3.87;3.30;;;23.80;99.90;;;;;;5046918;28;20460;-44
2022/10/29 11:30:11;;;;;;;6.13;3.43;;;23.80;99.90;;;;;;5035823;28;20452;-44
2022/10/29 11:32:52;;;;;;;3.70;3.10;;;23.80;99.90;;;;;;5035006;28;20524;-43
2022/10/29 11:35:27;;;;;;;4.00;2.60;;;23.80;99.90;;;;;;5038142;28;20461;-44
2022/10/29 11:37:58;;;;;;;4.00;2.87;;;23.80;99.90;;;;;;5036502;28;20461;-44
2022/10/29 11:40:35;;;;;;;4.30;3.30;;;23.80;99.90;;;;;;5034896;28;20531;-44
2022/10/29 11:43:09;;;;;;;4.40;3.80;;;23.80;99.90;;;;;;5033698;28;20493;-44
2022/10/29 11:45:44;;;;;;;4.43;3.07;;;23.80;99.90;;;;;;5041247;28;20832;-45
2022/10/29 11:48:18;;;;;;;6.43;3.63;;;23.80;99.90;;;;;;5039219;28;20461;-43
2022/10/29 11:50:53;;;;;;;4.97;3.10;;;23.80;99.90;;;;;;5036701;28;20873;-45
2022/10/29 11:53:31;;;;;;;4.20;2.97;;;23.80;99.90;;;;;;5038748;28;20463;-45
2022/10/29 11:56:07;;;;;;;5.60;3.10;;;23.80;99.90;;;;;;5034097;28;20464;-46
2022/10/29 11:58:41;;;;;;;3.67;3.33;;;23.80;99.90;;;;;;5034871;28;20463;-46
2022/10/29 12:01:19;;;;;;;6.27;2.83;;;23.80;99.90;;;;;;5034485;28;20460;-45
2022/10/29 12:04:09;;;;;;;4.47;2.90;;;23.80;99.90;;;;;;5034099;28;20481;-45
2022/10/29 12:06:42;;;;;;;5.87;2.70;;;23.80;99.90;;;;;;5033701;28;20569;-45
2022/10/29 12:09:46;;;;;;;6.80;3.40;;;23.80;99.90;;;;;;5039125;28;20952;-45
2022/10/29 12:12:18;;;;;;;3.10;2.67;;;23.80;99.90;;;;;;5031921;28;20449;-44
2022/10/29 12:14:51;;;;;;;3.57;3.23;;;23.80;99.90;;;;;;5027851;28;20969;-48
2022/10/29 12:17:23;;;;;;;3.30;3.00;;;23.80;99.90;;;;;;5027508;28;21024;-45
2022/10/29 12:19:58;;;;;;;2.93;2.73;;;23.80;99.90;;;;;;5030884;28;21016;-46
2022/10/29 12:22:36;;;;;;;4.60;2.90;;;23.80;99.90;;;;;;5029729;28;20508;-45
2022/10/29 12:25:27;;;;;;;3.77;3.30;;;23.80;99.90;;;;;;5028652;28;20859;-46
2022/10/29 12:28:06;;;;;;;3.97;2.50;;;23.80;99.90;;;;;;5028574;28;20458;-46
2022/10/29 12:30:44;;;;;;;5.10;3.33;;;23.80;99.90;;;;;;5033985;28;20930;-45
2022/10/29 12:33:23;;;;;;;5.23;2.90;;;23.80;99.90;;;;;;5030986;28;20458;-45
2022/10/29 12:35:56;;;;;;;3.50;3.20;;;23.80;99.90;;;;;;5035721;28;20462;-44
2022/10/29 12:38:35;;;;;;;3.20;2.90;;;23.80;99.90;;;;;;5033930;28;20453;-43
2022/10/29 12:41:05;;;;;;;3.33;2.70;;;23.80;99.90;;;;;;5033185;28;20453;-43
2022/10/29 12:43:35;;;;;;;3.50;2.63;;;23.80;99.90;;;;;;5035319;28;20504;-43
2022/10/29 12:46:15;;;;;;;6.10;3.30;;;23.80;99.90;;;;;;5032210;28;20465;-44
2022/10/29 12:48:48;;;;;;;4.03;3.13;;;23.80;99.90;;;;;;5032802;28;20461;-43
2022/10/29 12:51:23;;;;;;;3.00;2.50;;;23.80;99.90;;;;;;5031063;28;20457;-43
2022/10/29 12:54:10;;;;;;;3.30;3.00;;;23.80;99.90;;;;;;5036564;28;20457;-43
2022/10/29 12:56:38;;;;;;;3.50;2.90;;;23.80;99.90;;;;;;5039575;28;20469;-43
2022/10/29 12:59:29;;;;;;;2.70;2.17;;;23.70;99.90;;;;;;5038178;28;20829;-43
2022/10/29 13:02:28;;;;;;;4.03;2.50;;;23.80;99.90;;;;;;5035381;28;20458;-43